Hauptseite
METAR-TAF:

METAR-TAF

Flughäfen :

Rostock, Deutschland

Flughafen Rostock-Laage

Breite: 53-55N, Länge: 012-17E, Höhe: 40 m

Beobachtung

Neuester Wetterbericht von vor 1 Stunde und 19 Minuten, um 23:20 UTC
Wind 3 kt aus Süd
Temperatur 3°C
Luftfeuchtigkeit 81%
Luftdruck 1013 hPa
Sichtweite 10 km oder mehr
Durchbrochene Bewölkung in der Höhe von 8000 ft

METAR: ETNL 272320Z 17003KT 9999 BKN080 03/M00 Q1013 BLU

Zeit: 02:39 (00:39 UTC)

Prognose

Neuester Wetterbericht von vor 2 Stunden und 39 Minuten, um 22:00 UTC
Gültige Prognose vom 27 um 23 UTC bis 28 um 11 UTC
Wind 5 kt aus Süd/Südost
Sichtweite 10 km oder mehr
Durchbrochene Bewölkung in der Höhe von 10000 ft

TAF: ETNL 272200Z 2723/2811 16005KT 9999 NSW BKN100 BY ETGL

Wetterbeobachtungen und Prognosen von mehr als 4000 Flughäfen (METAR und TAF Bericht).

Die verfügbaren Stationen werden durch gelbe und rote Markierungen auf der Karte dargestellt.

Führen Sie die Maus auf sie, um den Namen der Station zu sehen.

Darauf klicken, um die Beobachtung von Wetterbeobachtungen und Prognosen zu sehen.

Um die Karte zu ändern : klicken Sie auf den grünen Tasten mit einem schwarzen Kreuz Zum Vergrößern, auf den grünen Button mit einem Gedankenstrich zu verkleinern, oder auf die grünen Pfeile für benachbarte Karten.


METAR-TAF: